createdAt,value
2023-02-06T00:00:01.623Z,1033.1867109096088
2023-02-06T00:15:01.323Z,1033.0511461133617
2023-02-06T00:30:01.066Z,1032.989057297223
2023-02-06T00:45:01.769Z,1032.9222399053772
2023-02-06T01:00:01.444Z,1032.9529375073923
2023-02-06T01:15:01.137Z,1033.0276638617852
2023-02-06T01:30:02.152Z,1032.9259654235416
2023-02-06T01:45:01.870Z,1032.8932097640745
2023-02-06T02:00:01.870Z,1032.8681056841529
2023-02-06T02:15:02.546Z,1033.0004947457032
2023-02-06T02:30:02.279Z,1032.812597298152
2023-02-06T02:45:02.031Z,1032.8369157688865
2023-02-06T03:00:01.706Z,1033.0375490544548
2023-02-06T03:15:02.365Z,1032.756050940529
2023-02-06T03:30:02.059Z,1032.8133247693818
2023-02-06T03:45:01.772Z,1032.8708477987648
2023-02-06T04:00:02.424Z,1033.0313740998208
2023-02-06T04:15:02.123Z,1033.0742764786855
2023-02-06T04:30:01.902Z,1033.034016958835
2023-02-06T04:45:01.632Z,1032.9524455321405
2023-02-06T05:00:02.297Z,1032.9896024243967
2023-02-06T05:15:01.966Z,1032.8272621471278
2023-02-06T05:30:01.881Z,1032.7125091814223
2023-02-06T05:45:01.580Z,1032.6700123692328
2023-02-06T06:00:02.282Z,1032.7407751759838
2023-02-06T06:15:01.957Z,1032.6177251262407
2023-02-06T06:30:01.866Z,1032.5354149169125
2023-02-06T06:45:01.644Z,1032.6096728893942
2023-02-06T07:00:02.487Z,1032.696066508024
2023-02-06T07:15:02.225Z,1032.6774312403668
2023-02-06T07:30:02.004Z,1032.7883375760812
2023-02-06T07:45:01.720Z,1032.61231014926
2023-02-06T08:00:01.455Z,1032.8268191711525
2023-02-06T08:15:02.192Z,1032.7577488180773
2023-02-06T08:30:01.900Z,1032.8589524434915
2023-02-06T08:45:01.638Z,1033.1353992785128
2023-02-06T09:00:01.492Z,1032.9477822931703
2023-02-06T09:15:02.351Z,1033.0878875987203
2023-02-06T09:30:02.178Z,1033.1402075382407
2023-02-06T09:45:01.910Z,1033.0053822318075
2023-02-06T10:00:01.963Z,1033.1345118658523
2023-02-06T10:15:01.742Z,1032.8571985495248
2023-02-06T10:30:02.476Z,1032.8203425966633
2023-02-06T10:45:17.485Z,1032.6608052289414
2023-02-06T11:00:02.093Z,1032.5838265222353
2023-02-06T11:15:01.867Z,1032.5380375456205
2023-02-06T11:30:01.596Z,1032.4144607209307
2023-02-06T11:45:02.292Z,1032.5388271017043
2023-02-06T12:00:02.081Z,1032.3398940545599
2023-02-06T12:15:18.221Z,1032.2650564691198
2023-02-06T12:30:02.388Z,1032.3963427484696
2023-02-06T12:45:02.140Z,1032.2717262151268
2023-02-06T13:00:01.796Z,1032.206663864311
2023-02-06T13:15:01.530Z,1032.2067526002375
2023-02-06T13:30:02.204Z,1031.9717491550784
2023-02-06T13:45:02.012Z,1031.8713289532047
2023-02-06T14:00:01.689Z,1031.8501268226685
2023-02-06T14:15:02.372Z,1031.8736376209401
2023-02-06T14:30:02.124Z,1031.889719710588
2023-02-06T14:45:01.819Z,1031.9157866291457
2023-02-06T15:00:01.513Z,1031.7668233571364
2023-02-06T15:15:02.235Z,1031.6581873873524
2023-02-06T15:30:01.942Z,1031.6546094984778
2023-02-06T15:45:01.637Z,1031.5878124345534
2023-02-06T16:00:02.316Z,1031.5215803805297
2023-02-06T16:15:02.159Z,1031.6550978931864
2023-02-06T16:30:01.871Z,1031.599306698325
2023-02-06T16:45:01.593Z,1031.646786484878
2023-02-06T17:00:02.288Z,1031.6252145548015
2023-02-06T17:15:01.958Z,1031.8005691454348
2023-02-06T17:30:01.688Z,1031.9473556075613
2023-02-06T17:45:01.391Z,1031.9850604824655
2023-02-06T18:00:02.379Z,1032.0249495161092
2023-02-06T18:15:02.070Z,1032.0027158383957
2023-02-06T18:30:01.796Z,1031.9723336261625
2023-02-06T18:45:04.131Z,1031.8670704769902
2023-02-06T19:00:02.077Z,1031.83885506669
2023-02-06T19:15:01.744Z,1031.903167357578
2023-02-06T19:30:02.431Z,1031.876304579432
2023-02-06T19:45:02.101Z,1031.9882061266185
2023-02-06T20:00:01.773Z,1032.1425775506698
2023-02-06T20:15:01.499Z,1032.2640274314924
2023-02-06T20:30:02.255Z,1032.4511581718361
2023-02-06T20:45:01.936Z,1032.5027496802202
2023-02-06T21:00:01.618Z,1032.5413187763172
2023-02-06T21:15:02.295Z,1032.5920689841348
2023-02-06T21:30:02.005Z,1032.5632166838302
2023-02-06T21:45:01.688Z,1032.7912906957927
2023-02-06T22:00:02.440Z,1032.6132869476573
2023-02-06T22:15:02.111Z,1032.6013523601687
2023-02-06T22:30:01.771Z,1032.6140854693172
2023-02-06T22:45:01.440Z,1032.6692222789495
2023-02-06T23:00:02.163Z,1032.6908051297569
2023-02-06T23:15:01.866Z,1032.9739695367605
2023-02-06T23:30:01.662Z,1032.8750902760685
2023-02-06T23:45:01.383Z,1032.8449867864706
